TAM2202 SBGO-SBSV
Flight info
| Callsign | TAM2202 |
|---|---|
| Flight time | 1h 48m |
| Altitude | 39000 |
| Route | LODUV DCT UGTAK UZ19 DOTBI |
| Aircraft | A20N/M-SDE2E3FGHIRWXY/LB1 |
Departure
| Time | 2026-04-25 21:46 |
|---|---|
| Airport | Santa Genoveva International Airport (SBGO) |
Arrival
| Time | 2026-04-25 23:34 |
|---|---|
| Airport | Deputado Luiz Eduardo Magalhães International Airport (SBSV) |
| Time | Latitude | Longitude | Altitude | Speed | Heading |
|---|---|---|---|---|---|
| 2026-04-25 21:16 | -16.62974 | -49.21530 | 2469 ft | 0 kts | 63° |
| 2026-04-25 21:32 | -16.62975 | -49.21532 | 2470 ft | 1 kts | 64° |
| 2026-04-25 21:32 | -16.62982 | -49.21546 | 2470 ft | 2 kts | 63° |
| 2026-04-25 21:33 | -16.62989 | -49.21560 | 2470 ft | 2 kts | 64° |
| 2026-04-25 21:33 | -16.62995 | -49.21574 | 2469 ft | 2 kts | 54° |
| 2026-04-25 21:33 | -16.63007 | -49.21583 | 2469 ft | 2 kts | 15° |
| 2026-04-25 21:33 | -16.63022 | -49.21583 | 2470 ft | 2 kts | 340° |
| 2026-04-25 21:34 | -16.63035 | -49.21575 | 2469 ft | 2 kts | 326° |
| 2026-04-25 21:34 | -16.63042 | -49.21571 | 2469 ft | 1 kts | 328° |
| 2026-04-25 21:34 | -16.63045 | -49.21569 | 2469 ft | 0 kts | 324° |
| 2026-04-25 21:36 | -16.63044 | -49.21570 | 2469 ft | 0 kts | 324° |
| 2026-04-25 21:36 | -16.63036 | -49.21576 | 2469 ft | 2 kts | 324° |
| 2026-04-25 21:37 | -16.63021 | -49.21586 | 2469 ft | 3 kts | 329° |
| 2026-04-25 21:37 | -16.63014 | -49.21590 | 2469 ft | 3 kts | 331° |
| 2026-04-25 21:37 | -16.62966 | -49.21612 | 2469 ft | 5 kts | 338° |
| 2026-04-25 21:37 | -16.62929 | -49.21630 | 2469 ft | 6 kts | 326° |
| 2026-04-25 21:38 | -16.62918 | -49.21674 | 2469 ft | 7 kts | 259° |
| 2026-04-25 21:38 | -16.62929 | -49.21730 | 2469 ft | 8 kts | 258° |
| 2026-04-25 21:38 | -16.62942 | -49.21791 | 2469 ft | 9 kts | 257° |
| 2026-04-25 21:38 | -16.62957 | -49.21859 | 2469 ft | 10 kts | 257° |
| 2026-04-25 21:39 | -16.62974 | -49.21934 | 2469 ft | 10 kts | 257° |
| 2026-04-25 21:39 | -16.62989 | -49.22015 | 2469 ft | 11 kts | 259° |
| 2026-04-25 21:39 | -16.62992 | -49.22100 | 2469 ft | 12 kts | 279° |
| 2026-04-25 21:39 | -16.62961 | -49.22185 | 2469 ft | 12 kts | 297° |
| 2026-04-25 21:40 | -16.62915 | -49.22266 | 2469 ft | 13 kts | 301° |
| 2026-04-25 21:40 | -16.62869 | -49.22350 | 2469 ft | 13 kts | 300° |
| 2026-04-25 21:40 | -16.62820 | -49.22436 | 2469 ft | 14 kts | 300° |
| 2026-04-25 21:40 | -16.62770 | -49.22526 | 2469 ft | 14 kts | 299° |
| 2026-04-25 21:41 | -16.62718 | -49.22617 | 2469 ft | 14 kts | 300° |
| 2026-04-25 21:41 | -16.62666 | -49.22710 | 2469 ft | 14 kts | 300° |
| 2026-04-25 21:41 | -16.62617 | -49.22796 | 2469 ft | 12 kts | 301° |
| 2026-04-25 21:41 | -16.62579 | -49.22866 | 2469 ft | 8 kts | 292° |
| 2026-04-25 21:42 | -16.62592 | -49.22926 | 2469 ft | 9 kts | 218° |
| 2026-04-25 21:42 | -16.62606 | -49.22936 | 2469 ft | 0 kts | 213° |
| 2026-04-25 21:43 | -16.62607 | -49.22936 | 2469 ft | 0 kts | 213° |
| 2026-04-25 21:43 | -16.62612 | -49.22940 | 2469 ft | 1 kts | 213° |
| 2026-04-25 21:44 | -16.62625 | -49.22948 | 2469 ft | 2 kts | 212° |
| 2026-04-25 21:44 | -16.62643 | -49.22960 | 2469 ft | 3 kts | 210° |
| 2026-04-25 21:44 | -16.62704 | -49.22969 | 2469 ft | 7 kts | 142° |
| 2026-04-25 21:45 | -16.62737 | -49.22922 | 2469 ft | 8 kts | 120° |
| 2026-04-25 21:45 | -16.62748 | -49.22903 | 2469 ft | 11 kts | 121° |
| 2026-04-25 21:45 | -16.63167 | -49.22157 | 2470 ft | 131 kts | 120° |
| 2026-04-25 21:45 | -16.63710 | -49.21204 | 2678 ft | 164 kts | 121° |
| 2026-04-25 21:46 | -16.64309 | -49.20172 | 3246 ft | 171 kts | 121° |
| 2026-04-25 21:46 | -16.64949 | -49.19063 | 3763 ft | 187 kts | 121° |
| 2026-04-25 21:46 | -16.65537 | -49.17800 | 4264 ft | 207 kts | 102° |
| 2026-04-25 21:46 | -16.65292 | -49.16262 | 4785 ft | 229 kts | 60° |
| 2026-04-25 21:47 | -16.64135 | -49.15113 | 5205 ft | 243 kts | 25° |
| 2026-04-25 21:47 | -16.62470 | -49.14524 | 5630 ft | 258 kts | 20° |
| 2026-04-25 21:47 | -16.60909 | -49.13535 | 6019 ft | 274 kts | 48° |
| 2026-04-25 21:47 | -16.59731 | -49.11962 | 6713 ft | 278 kts | 55° |
| 2026-04-25 21:48 | -16.58632 | -49.10312 | 7428 ft | 282 kts | 55° |
| 2026-04-25 21:48 | -16.57495 | -49.08624 | 8146 ft | 287 kts | 55° |
| 2026-04-25 21:48 | -16.56313 | -49.06917 | 8851 ft | 291 kts | 54° |
| 2026-04-25 21:48 | -16.55108 | -49.05212 | 9563 ft | 296 kts | 53° |
| 2026-04-25 21:49 | -16.53878 | -49.03490 | 10268 ft | 300 kts | 53° |
| 2026-04-25 21:49 | -16.52612 | -49.01738 | 10781 ft | 311 kts | 53° |
| 2026-04-25 21:49 | -16.51261 | -48.99874 | 11099 ft | 328 kts | 52° |
| 2026-04-25 21:49 | -16.49859 | -48.97940 | 11587 ft | 338 kts | 52° |
| 2026-04-25 21:50 | -16.48441 | -48.95991 | 12258 ft | 340 kts | 52° |
| 2026-04-25 21:50 | -16.47003 | -48.94019 | 12897 ft | 344 kts | 53° |
| 2026-04-25 21:50 | -16.45562 | -48.92041 | 13459 ft | 349 kts | 53° |
| 2026-04-25 21:50 | -16.44564 | -48.90670 | 13839 ft | 351 kts | 53° |
| 2026-04-25 21:51 | -16.42603 | -48.87975 | 14634 ft | 355 kts | 53° |
| 2026-04-25 21:51 | -16.41096 | -48.85907 | 15259 ft | 356 kts | 53° |
| 2026-04-25 21:51 | -16.39601 | -48.83854 | 15837 ft | 358 kts | 53° |
| 2026-04-25 21:51 | -16.38131 | -48.81764 | 16385 ft | 361 kts | 56° |
| 2026-04-25 21:52 | -16.36783 | -48.79568 | 16907 ft | 363 kts | 59° |
| 2026-04-25 21:52 | -16.35499 | -48.77282 | 17419 ft | 366 kts | 60° |
| 2026-04-25 21:52 | -16.34214 | -48.74972 | 17928 ft | 369 kts | 60° |
| 2026-04-25 21:52 | -16.32932 | -48.72665 | 18432 ft | 371 kts | 60° |
| 2026-04-25 21:53 | -16.31634 | -48.70334 | 18932 ft | 374 kts | 60° |
| 2026-04-25 21:53 | -16.30319 | -48.67975 | 19414 ft | 377 kts | 60° |
| 2026-04-25 21:53 | -16.29006 | -48.65622 | 19884 ft | 379 kts | 60° |
| 2026-04-25 21:53 | -16.27668 | -48.63227 | 20352 ft | 382 kts | 60° |
| 2026-04-25 21:54 | -16.26334 | -48.60840 | 20811 ft | 384 kts | 60° |
| 2026-04-25 21:54 | -16.24996 | -48.58448 | 21267 ft | 387 kts | 60° |
| 2026-04-25 21:54 | -16.23625 | -48.55998 | 21715 ft | 389 kts | 60° |
| 2026-04-25 21:54 | -16.22264 | -48.53566 | 22159 ft | 391 kts | 60° |
| 2026-04-25 21:55 | -16.20893 | -48.51118 | 22612 ft | 394 kts | 60° |
| 2026-04-25 21:55 | -16.19507 | -48.48645 | 23055 ft | 396 kts | 60° |
| 2026-04-25 21:55 | -16.18119 | -48.46167 | 23476 ft | 399 kts | 60° |
| 2026-04-25 21:55 | -16.16716 | -48.43666 | 23806 ft | 404 kts | 60° |
| 2026-04-25 21:56 | -16.15284 | -48.41111 | 24207 ft | 408 kts | 60° |
| 2026-04-25 21:56 | -16.14335 | -48.39418 | 24494 ft | 409 kts | 60° |
| 2026-04-25 21:56 | -16.13076 | -48.37172 | 24867 ft | 411 kts | 60° |
| 2026-04-25 21:56 | -16.11675 | -48.34674 | 25276 ft | 413 kts | 60° |
| 2026-04-25 21:57 | -16.10228 | -48.32087 | 25686 ft | 415 kts | 60° |
| 2026-04-25 21:57 | -16.08779 | -48.29492 | 26091 ft | 417 kts | 60° |
| 2026-04-25 21:57 | -16.07312 | -48.26868 | 26491 ft | 419 kts | 60° |
| 2026-04-25 21:57 | -16.05852 | -48.24262 | 26872 ft | 421 kts | 60° |
| 2026-04-25 21:58 | -16.04370 | -48.21622 | 27253 ft | 423 kts | 60° |
| 2026-04-25 21:58 | -16.02879 | -48.18967 | 27628 ft | 425 kts | 60° |
| 2026-04-25 21:58 | -16.01391 | -48.16321 | 27989 ft | 427 kts | 60° |
| 2026-04-25 21:58 | -15.99880 | -48.13636 | 28338 ft | 429 kts | 60° |
| 2026-04-25 21:59 | -15.98368 | -48.10949 | 28675 ft | 432 kts | 60° |
| 2026-04-25 21:59 | -15.96858 | -48.08268 | 29021 ft | 434 kts | 60° |
| 2026-04-25 21:59 | -15.95338 | -48.05568 | 29395 ft | 435 kts | 60° |
| 2026-04-25 22:00 | -15.92282 | -48.00140 | 30126 ft | 437 kts | 60° |
| 2026-04-25 22:00 | -15.90734 | -47.97394 | 30450 ft | 439 kts | 59° |
| 2026-04-25 22:00 | -15.89175 | -47.94635 | 30780 ft | 441 kts | 59° |
| 2026-04-25 22:00 | -15.87623 | -47.91911 | 31105 ft | 442 kts | 59° |
| 2026-04-25 22:01 | -15.86043 | -47.89139 | 31426 ft | 443 kts | 59° |
| 2026-04-25 22:01 | -15.84475 | -47.86382 | 31782 ft | 443 kts | 59° |
| 2026-04-25 22:01 | -15.82915 | -47.83633 | 32200 ft | 441 kts | 59° |
| 2026-04-25 22:01 | -15.81891 | -47.81827 | 32471 ft | 440 kts | 59° |
| 2026-04-25 22:02 | -15.79832 | -47.78192 | 33006 ft | 437 kts | 59° |
| 2026-04-25 22:02 | -15.78278 | -47.75449 | 33410 ft | 436 kts | 59° |
| 2026-04-25 22:02 | -15.76757 | -47.72765 | 33770 ft | 435 kts | 59° |
| 2026-04-25 22:02 | -15.75227 | -47.70066 | 34122 ft | 434 kts | 59° |
| 2026-04-25 22:03 | -15.73691 | -47.67355 | 34483 ft | 433 kts | 59° |
| 2026-04-25 22:03 | -15.72172 | -47.64674 | 34826 ft | 432 kts | 59° |
| 2026-04-25 22:03 | -15.70650 | -47.61990 | 35143 ft | 431 kts | 59° |
| 2026-04-25 22:03 | -15.69135 | -47.59319 | 35441 ft | 430 kts | 59° |
| 2026-04-25 22:04 | -15.67621 | -47.56649 | 35722 ft | 429 kts | 59° |
| 2026-04-25 22:04 | -15.66106 | -47.53979 | 35986 ft | 429 kts | 59° |
| 2026-04-25 22:04 | -15.64597 | -47.51321 | 36225 ft | 428 kts | 59° |
| 2026-04-25 22:04 | -15.63098 | -47.48680 | 36458 ft | 428 kts | 59° |
| 2026-04-25 22:05 | -15.61588 | -47.46022 | 36675 ft | 428 kts | 59° |
| 2026-04-25 22:05 | -15.60075 | -47.43360 | 36889 ft | 428 kts | 59° |
| 2026-04-25 22:05 | -15.58571 | -47.40715 | 37105 ft | 427 kts | 59° |
| 2026-04-25 22:05 | -15.57073 | -47.38081 | 37310 ft | 427 kts | 59° |
| 2026-04-25 22:06 | -15.55565 | -47.35431 | 37505 ft | 426 kts | 59° |
| 2026-04-25 22:06 | -15.54038 | -47.32741 | 37691 ft | 426 kts | 59° |
| 2026-04-25 22:06 | -15.52546 | -47.30104 | 37879 ft | 425 kts | 59° |
| 2026-04-25 22:06 | -15.51049 | -47.27463 | 38057 ft | 425 kts | 59° |
| 2026-04-25 22:07 | -15.49555 | -47.24830 | 38233 ft | 425 kts | 59° |
| 2026-04-25 22:07 | -15.48556 | -47.23074 | 38341 ft | 424 kts | 59° |
| 2026-04-25 22:07 | -15.46572 | -47.19588 | 38558 ft | 424 kts | 59° |
| 2026-04-25 22:07 | -15.45067 | -47.16947 | 38708 ft | 423 kts | 59° |
| 2026-04-25 22:08 | -15.43577 | -47.14336 | 38873 ft | 423 kts | 59° |
| 2026-04-25 22:08 | -15.42080 | -47.11714 | 39021 ft | 422 kts | 59° |
| 2026-04-25 22:08 | -15.39092 | -47.06481 | 39060 ft | 423 kts | 59° |
| 2026-04-25 22:09 | -15.36086 | -47.01219 | 39062 ft | 423 kts | 59° |
| 2026-04-25 22:09 | -15.33094 | -46.95984 | 39056 ft | 423 kts | 59° |
| 2026-04-25 22:10 | -15.30095 | -46.90744 | 39051 ft | 423 kts | 59° |
| 2026-04-25 22:10 | -15.27100 | -46.85514 | 39050 ft | 422 kts | 59° |
| 2026-04-25 22:11 | -15.24152 | -46.80371 | 39047 ft | 422 kts | 59° |
| 2026-04-25 22:11 | -15.21156 | -46.75147 | 39046 ft | 422 kts | 59° |
| 2026-04-25 22:12 | -15.18183 | -46.69964 | 39050 ft | 422 kts | 59° |
| 2026-04-25 22:12 | -15.16173 | -46.66465 | 39050 ft | 421 kts | 59° |
| 2026-04-25 22:13 | -15.12198 | -46.59546 | 39047 ft | 420 kts | 59° |
| 2026-04-25 22:13 | -15.09205 | -46.54343 | 39049 ft | 420 kts | 59° |
| 2026-04-25 22:14 | -15.06219 | -46.49153 | 39046 ft | 420 kts | 59° |
| 2026-04-25 22:14 | -15.03250 | -46.43997 | 39048 ft | 420 kts | 59° |
| 2026-04-25 22:15 | -15.00250 | -46.38796 | 39051 ft | 420 kts | 59° |
| 2026-04-25 22:16 | -14.95753 | -46.30987 | 39052 ft | 419 kts | 59° |
| 2026-04-25 22:16 | -14.92813 | -46.25785 | 39049 ft | 419 kts | 61° |
| 2026-04-25 22:17 | -14.90713 | -46.21312 | 39052 ft | 419 kts | 66° |
| 2026-04-25 22:17 | -14.88595 | -46.15404 | 39062 ft | 420 kts | 71° |
| 2026-04-25 22:18 | -14.86812 | -46.09636 | 39065 ft | 420 kts | 71° |
| 2026-04-25 22:18 | -14.85051 | -46.03904 | 39072 ft | 420 kts | 71° |
| 2026-04-25 22:19 | -14.83283 | -45.98136 | 39074 ft | 419 kts | 71° |
| 2026-04-25 22:19 | -14.81531 | -45.92418 | 39075 ft | 418 kts | 71° |
| 2026-04-25 22:20 | -14.79776 | -45.86699 | 39070 ft | 418 kts | 71° |
| 2026-04-25 22:20 | -14.78027 | -45.81001 | 39063 ft | 419 kts | 71° |
| 2026-04-25 22:21 | -14.76253 | -45.75227 | 39067 ft | 420 kts | 71° |
| 2026-04-25 22:21 | -14.74489 | -45.69494 | 39064 ft | 419 kts | 71° |
| 2026-04-25 22:22 | -14.72725 | -45.63765 | 39069 ft | 419 kts | 71° |
| 2026-04-25 22:22 | -14.70965 | -45.58056 | 39079 ft | 419 kts | 72° |
| 2026-04-25 22:23 | -14.69228 | -45.52425 | 39086 ft | 420 kts | 72° |
| 2026-04-25 22:23 | -14.67458 | -45.46695 | 39083 ft | 419 kts | 72° |
| 2026-04-25 22:24 | -14.65674 | -45.40924 | 39079 ft | 419 kts | 72° |
| 2026-04-25 22:24 | -14.63914 | -45.35241 | 39072 ft | 418 kts | 72° |
| 2026-04-25 22:25 | -14.62138 | -45.29487 | 39071 ft | 418 kts | 72° |
| 2026-04-25 22:25 | -14.60380 | -45.23787 | 39065 ft | 418 kts | 71° |
| 2026-04-25 22:26 | -14.58614 | -45.18083 | 39065 ft | 419 kts | 71° |
| 2026-04-25 22:26 | -14.56834 | -45.12354 | 39066 ft | 419 kts | 71° |
| 2026-04-25 22:27 | -14.55059 | -45.06647 | 39061 ft | 418 kts | 72° |
| 2026-04-25 22:27 | -14.53290 | -45.00967 | 39059 ft | 418 kts | 72° |
| 2026-04-25 22:28 | -14.51502 | -44.95231 | 39052 ft | 418 kts | 72° |
| 2026-04-25 22:28 | -14.49714 | -44.89506 | 39046 ft | 417 kts | 71° |
| 2026-04-25 22:29 | -14.48037 | -44.84141 | 39037 ft | 418 kts | 72° |
| 2026-04-25 22:29 | -14.46251 | -44.78425 | 39030 ft | 418 kts | 72° |
| 2026-04-25 22:30 | -14.43596 | -44.69920 | 39020 ft | 418 kts | 72° |
| 2026-04-25 22:30 | -14.42114 | -44.65191 | 39020 ft | 417 kts | 72° |
| 2026-04-25 22:31 | -14.40033 | -44.58555 | 39017 ft | 417 kts | 72° |
| 2026-04-25 22:31 | -14.38249 | -44.52875 | 39016 ft | 418 kts | 72° |
| 2026-04-25 22:32 | -14.36459 | -44.47181 | 39013 ft | 418 kts | 72° |
| 2026-04-25 22:32 | -14.34664 | -44.41476 | 39011 ft | 418 kts | 72° |
| 2026-04-25 22:33 | -14.32880 | -44.35817 | 39012 ft | 417 kts | 72° |
| 2026-04-25 22:33 | -14.31094 | -44.30135 | 39005 ft | 417 kts | 72° |
| 2026-04-25 22:34 | -14.29300 | -44.24439 | 38997 ft | 417 kts | 72° |
| 2026-04-25 22:34 | -14.27505 | -44.18764 | 38992 ft | 417 kts | 72° |
| 2026-04-25 22:35 | -14.25716 | -44.13116 | 38989 ft | 418 kts | 72° |
| 2026-04-25 22:35 | -14.23916 | -44.07406 | 38985 ft | 417 kts | 72° |
| 2026-04-25 22:36 | -14.22130 | -44.01735 | 38985 ft | 418 kts | 72° |
| 2026-04-25 22:36 | -14.20328 | -43.96036 | 38987 ft | 417 kts | 72° |
| 2026-04-25 22:37 | -14.18558 | -43.90447 | 38986 ft | 416 kts | 72° |
| 2026-04-25 22:37 | -14.16764 | -43.84795 | 38988 ft | 417 kts | 72° |
| 2026-04-25 22:38 | -14.15292 | -43.80164 | 38991 ft | 417 kts | 72° |
| 2026-04-25 22:38 | -14.13180 | -43.73523 | 39000 ft | 418 kts | 72° |
| 2026-04-25 22:39 | -14.11370 | -43.67846 | 39006 ft | 417 kts | 72° |
| 2026-04-25 22:39 | -14.09573 | -43.62214 | 39004 ft | 417 kts | 72° |
| 2026-04-25 22:40 | -14.07761 | -43.56520 | 39004 ft | 417 kts | 72° |
| 2026-04-25 22:40 | -14.05960 | -43.50850 | 39004 ft | 418 kts | 72° |
| 2026-04-25 22:41 | -14.04144 | -43.45157 | 39002 ft | 417 kts | 72° |
| 2026-04-25 22:41 | -14.02340 | -43.39516 | 39005 ft | 417 kts | 72° |
| 2026-04-25 22:42 | -14.00530 | -43.33867 | 39004 ft | 417 kts | 71° |
| 2026-04-25 22:42 | -13.98718 | -43.28172 | 39002 ft | 417 kts | 72° |
| 2026-04-25 22:43 | -13.96919 | -43.22509 | 39003 ft | 418 kts | 72° |
| 2026-04-25 22:43 | -13.95106 | -43.16833 | 39007 ft | 418 kts | 72° |
| 2026-04-25 22:44 | -13.93301 | -43.11203 | 39006 ft | 417 kts | 72° |
| 2026-04-25 22:44 | -13.91474 | -43.05516 | 39011 ft | 417 kts | 72° |
| 2026-04-25 22:45 | -13.89647 | -42.99838 | 39013 ft | 418 kts | 71° |
| 2026-04-25 22:45 | -13.87797 | -42.94176 | 39019 ft | 418 kts | 71° |
| 2026-04-25 22:46 | -13.85981 | -42.88589 | 39032 ft | 419 kts | 71° |
| 2026-04-25 22:46 | -13.84136 | -42.82885 | 39041 ft | 418 kts | 71° |
| 2026-04-25 22:47 | -13.82343 | -42.77334 | 39055 ft | 418 kts | 71° |
| 2026-04-25 22:47 | -13.80513 | -42.71669 | 39067 ft | 418 kts | 71° |
| 2026-04-25 22:48 | -13.78673 | -42.65978 | 39068 ft | 418 kts | 71° |
| 2026-04-25 22:48 | -13.76839 | -42.60313 | 39069 ft | 418 kts | 71° |
| 2026-04-25 22:49 | -13.75029 | -42.54727 | 39072 ft | 418 kts | 71° |
| 2026-04-25 22:49 | -13.73195 | -42.49070 | 39076 ft | 419 kts | 71° |
| 2026-04-25 22:50 | -13.71349 | -42.43378 | 39068 ft | 419 kts | 71° |
| 2026-04-25 22:50 | -13.69505 | -42.37698 | 39068 ft | 420 kts | 71° |
| 2026-04-25 22:51 | -13.67664 | -42.32027 | 39060 ft | 420 kts | 71° |
| 2026-04-25 22:51 | -13.65812 | -42.26318 | 39051 ft | 420 kts | 71° |
| 2026-04-25 22:52 | -13.63969 | -42.20657 | 39050 ft | 420 kts | 71° |
| 2026-04-25 22:52 | -13.62420 | -42.15902 | 39056 ft | 420 kts | 71° |
| 2026-04-25 22:53 | -13.60267 | -42.09293 | 39074 ft | 420 kts | 71° |
| 2026-04-25 22:53 | -13.58404 | -42.03595 | 39084 ft | 421 kts | 71° |
| 2026-04-25 22:54 | -13.56529 | -41.97869 | 39104 ft | 422 kts | 71° |
| 2026-04-25 22:54 | -13.54666 | -41.92174 | 39092 ft | 422 kts | 71° |
| 2026-04-25 22:55 | -13.52809 | -41.86478 | 39084 ft | 422 kts | 71° |
| 2026-04-25 22:55 | -13.50943 | -41.80770 | 39067 ft | 422 kts | 71° |
| 2026-04-25 22:56 | -13.49072 | -41.75058 | 39053 ft | 423 kts | 71° |
| 2026-04-25 22:56 | -13.47204 | -41.69360 | 39060 ft | 423 kts | 71° |
| 2026-04-25 22:57 | -13.45326 | -41.63642 | 39074 ft | 423 kts | 71° |
| 2026-04-25 22:57 | -13.43437 | -41.57896 | 39095 ft | 424 kts | 71° |
| 2026-04-25 22:58 | -13.41552 | -41.52166 | 39109 ft | 424 kts | 71° |
| 2026-04-25 22:58 | -13.39680 | -41.46478 | 39115 ft | 424 kts | 70° |
| 2026-04-25 22:59 | -13.37785 | -41.40729 | 39110 ft | 424 kts | 70° |
| 2026-04-25 22:59 | -13.35901 | -41.35016 | 39104 ft | 424 kts | 70° |
| 2026-04-25 23:00 | -13.34024 | -41.29308 | 39100 ft | 424 kts | 70° |
| 2026-04-25 23:00 | -13.32127 | -41.23548 | 39098 ft | 425 kts | 70° |
| 2026-04-25 23:01 | -13.30233 | -41.17812 | 39087 ft | 426 kts | 70° |
| 2026-04-25 23:01 | -13.28363 | -41.12159 | 39073 ft | 425 kts | 70° |
| 2026-04-25 23:02 | -13.26459 | -41.06414 | 39056 ft | 425 kts | 70° |
| 2026-04-25 23:02 | -13.24551 | -41.00664 | 39043 ft | 425 kts | 70° |
| 2026-04-25 23:03 | -13.22652 | -40.94944 | 39033 ft | 425 kts | 70° |
| 2026-04-25 23:03 | -13.20742 | -40.89199 | 39025 ft | 426 kts | 70° |
| 2026-04-25 23:04 | -13.19153 | -40.84431 | 39022 ft | 426 kts | 70° |
| 2026-04-25 23:04 | -13.16917 | -40.77718 | 39020 ft | 426 kts | 70° |
| 2026-04-25 23:05 | -13.15015 | -40.71983 | 39017 ft | 426 kts | 70° |
| 2026-04-25 23:05 | -13.13108 | -40.66238 | 39025 ft | 426 kts | 70° |
| 2026-04-25 23:06 | -13.12141 | -40.63327 | 38754 ft | 428 kts | 70° |
| 2026-04-25 23:06 | -13.11193 | -40.60469 | 38263 ft | 424 kts | 70° |
| 2026-04-25 23:06 | -13.10240 | -40.57605 | 37745 ft | 420 kts | 70° |
| 2026-04-25 23:06 | -13.09288 | -40.54753 | 37245 ft | 415 kts | 70° |
| 2026-04-25 23:07 | -13.08357 | -40.51963 | 36756 ft | 414 kts | 70° |
| 2026-04-25 23:07 | -13.07415 | -40.49146 | 36228 ft | 414 kts | 71° |
| 2026-04-25 23:07 | -13.06484 | -40.46363 | 35691 ft | 415 kts | 71° |
| 2026-04-25 23:07 | -13.05550 | -40.43574 | 35163 ft | 414 kts | 71° |
| 2026-04-25 23:08 | -13.04615 | -40.40785 | 34656 ft | 415 kts | 71° |
| 2026-04-25 23:08 | -13.03684 | -40.38004 | 34149 ft | 414 kts | 71° |
| 2026-04-25 23:08 | -13.02750 | -40.35216 | 33620 ft | 416 kts | 71° |
| 2026-04-25 23:08 | -13.01807 | -40.32382 | 33058 ft | 417 kts | 71° |
| 2026-04-25 23:09 | -13.00860 | -40.29530 | 32523 ft | 417 kts | 71° |
| 2026-04-25 23:09 | -12.99910 | -40.26675 | 31993 ft | 419 kts | 71° |
| 2026-04-25 23:09 | -12.98957 | -40.23821 | 31367 ft | 419 kts | 71° |
| 2026-04-25 23:09 | -12.98012 | -40.21003 | 30694 ft | 420 kts | 72° |
| 2026-04-25 23:10 | -12.97058 | -40.18162 | 30067 ft | 420 kts | 72° |
| 2026-04-25 23:10 | -12.96104 | -40.15321 | 29374 ft | 422 kts | 72° |
| 2026-04-25 23:10 | -12.95153 | -40.12494 | 28840 ft | 418 kts | 72° |
| 2026-04-25 23:10 | -12.94215 | -40.09706 | 28454 ft | 415 kts | 72° |
| 2026-04-25 23:11 | -12.93269 | -40.06892 | 28044 ft | 413 kts | 72° |
| 2026-04-25 23:11 | -12.92338 | -40.04125 | 27586 ft | 410 kts | 72° |
| 2026-04-25 23:11 | -12.91411 | -40.01379 | 27126 ft | 406 kts | 72° |
| 2026-04-25 23:11 | -12.90497 | -39.98673 | 26682 ft | 402 kts | 72° |
| 2026-04-25 23:12 | -12.89587 | -39.95987 | 26232 ft | 399 kts | 72° |
| 2026-04-25 23:12 | -12.88671 | -39.93316 | 25750 ft | 397 kts | 72° |
| 2026-04-25 23:12 | -12.87765 | -39.90661 | 25266 ft | 395 kts | 72° |
| 2026-04-25 23:12 | -12.86865 | -39.87999 | 24785 ft | 392 kts | 72° |
| 2026-04-25 23:13 | -12.86177 | -39.85394 | 24296 ft | 391 kts | 79° |
| 2026-04-25 23:13 | -12.85793 | -39.82671 | 23837 ft | 388 kts | 86° |
| 2026-04-25 23:13 | -12.85712 | -39.79911 | 23386 ft | 385 kts | 90° |
| 2026-04-25 23:13 | -12.85738 | -39.77186 | 22916 ft | 384 kts | 91° |
| 2026-04-25 23:14 | -12.85777 | -39.74448 | 22428 ft | 383 kts | 91° |
| 2026-04-25 23:14 | -12.85813 | -39.71753 | 21956 ft | 382 kts | 91° |
| 2026-04-25 23:14 | -12.85846 | -39.69024 | 21489 ft | 381 kts | 91° |
| 2026-04-25 23:14 | -12.85875 | -39.66333 | 20989 ft | 381 kts | 91° |
| 2026-04-25 23:15 | -12.85903 | -39.63710 | 20510 ft | 379 kts | 91° |
| 2026-04-25 23:15 | -12.85930 | -39.60994 | 20025 ft | 377 kts | 91° |
| 2026-04-25 23:15 | -12.85956 | -39.58351 | 19559 ft | 375 kts | 91° |
| 2026-04-25 23:15 | -12.85982 | -39.55690 | 19093 ft | 372 kts | 92° |
| 2026-04-25 23:16 | -12.86008 | -39.53103 | 18631 ft | 370 kts | 92° |
| 2026-04-25 23:16 | -12.86033 | -39.50516 | 18176 ft | 367 kts | 92° |
| 2026-04-25 23:16 | -12.86058 | -39.47908 | 17715 ft | 364 kts | 92° |
| 2026-04-25 23:16 | -12.86082 | -39.45321 | 17278 ft | 361 kts | 92° |
| 2026-04-25 23:17 | -12.86108 | -39.42770 | 16830 ft | 358 kts | 92° |
| 2026-04-25 23:17 | -12.86133 | -39.40245 | 16387 ft | 355 kts | 92° |
| 2026-04-25 23:17 | -12.86157 | -39.37706 | 15944 ft | 352 kts | 92° |
| 2026-04-25 23:17 | -12.86179 | -39.35231 | 15515 ft | 349 kts | 92° |
| 2026-04-25 23:18 | -12.86202 | -39.32751 | 15079 ft | 347 kts | 92° |
| 2026-04-25 23:18 | -12.86222 | -39.30298 | 14647 ft | 344 kts | 92° |
| 2026-04-25 23:18 | -12.86241 | -39.28142 | 14269 ft | 341 kts | 91° |
| 2026-04-25 23:18 | -12.86261 | -39.25692 | 13833 ft | 339 kts | 91° |
| 2026-04-25 23:19 | -12.86282 | -39.23302 | 13409 ft | 336 kts | 91° |
| 2026-04-25 23:19 | -12.86302 | -39.20913 | 12992 ft | 334 kts | 91° |
| 2026-04-25 23:19 | -12.86321 | -39.18538 | 12588 ft | 330 kts | 91° |
| 2026-04-25 23:19 | -12.86340 | -39.16185 | 12201 ft | 327 kts | 91° |
| 2026-04-25 23:20 | -12.86359 | -39.13886 | 11811 ft | 323 kts | 91° |
| 2026-04-25 23:20 | -12.86377 | -39.11584 | 11412 ft | 320 kts | 91° |
| 2026-04-25 23:20 | -12.86394 | -39.09343 | 11039 ft | 316 kts | 91° |
| 2026-04-25 23:20 | -12.86411 | -39.07092 | 10669 ft | 313 kts | 91° |
| 2026-04-25 23:21 | -12.86427 | -39.04867 | 10309 ft | 308 kts | 91° |
| 2026-04-25 23:21 | -12.86443 | -39.02708 | 10163 ft | 296 kts | 91° |
| 2026-04-25 23:21 | -12.86458 | -39.00658 | 10101 ft | 283 kts | 91° |
| 2026-04-25 23:21 | -12.86471 | -38.98691 | 10036 ft | 269 kts | 91° |
| 2026-04-25 23:22 | -12.86484 | -38.96808 | 9798 ft | 264 kts | 91° |
| 2026-04-25 23:22 | -12.86499 | -38.94923 | 9479 ft | 262 kts | 92° |
| 2026-04-25 23:22 | -12.86512 | -38.93088 | 9182 ft | 258 kts | 91° |
| 2026-04-25 23:23 | -12.86626 | -38.89441 | 8611 ft | 251 kts | 99° |
| 2026-04-25 23:23 | -12.86989 | -38.87708 | 8323 ft | 247 kts | 108° |
| 2026-04-25 23:23 | -12.87530 | -38.86071 | 8053 ft | 244 kts | 110° |
| 2026-04-25 23:23 | -12.88103 | -38.84441 | 7775 ft | 241 kts | 110° |
| 2026-04-25 23:24 | -12.88650 | -38.82889 | 7510 ft | 238 kts | 110° |
| 2026-04-25 23:24 | -12.89208 | -38.81304 | 7240 ft | 235 kts | 110° |
| 2026-04-25 23:24 | -12.89759 | -38.79730 | 6973 ft | 232 kts | 110° |
| 2026-04-25 23:24 | -12.90295 | -38.78195 | 6704 ft | 229 kts | 110° |
| 2026-04-25 23:25 | -12.90824 | -38.76676 | 6446 ft | 227 kts | 110° |
| 2026-04-25 23:25 | -12.91357 | -38.75144 | 6191 ft | 226 kts | 110° |
| 2026-04-25 23:25 | -12.91885 | -38.73626 | 5937 ft | 225 kts | 110° |
| 2026-04-25 23:25 | -12.92232 | -38.72627 | 5769 ft | 224 kts | 110° |
| 2026-04-25 23:26 | -12.92927 | -38.70627 | 5433 ft | 222 kts | 110° |
| 2026-04-25 23:26 | -12.93440 | -38.69150 | 5183 ft | 220 kts | 110° |
| 2026-04-25 23:26 | -12.93958 | -38.67662 | 4930 ft | 220 kts | 110° |
| 2026-04-25 23:26 | -12.94469 | -38.66194 | 4681 ft | 218 kts | 110° |
| 2026-04-25 23:27 | -12.94976 | -38.64736 | 4433 ft | 217 kts | 110° |
| 2026-04-25 23:27 | -12.95479 | -38.63287 | 4187 ft | 216 kts | 110° |
| 2026-04-25 23:27 | -12.95985 | -38.61832 | 3955 ft | 215 kts | 109° |
| 2026-04-25 23:27 | -12.96295 | -38.60334 | 3776 ft | 215 kts | 94° |
| 2026-04-25 23:28 | -12.96204 | -38.58812 | 3586 ft | 216 kts | 82° |
| 2026-04-25 23:28 | -12.95909 | -38.57302 | 3392 ft | 215 kts | 80° |
| 2026-04-25 23:28 | -12.95591 | -38.55800 | 3195 ft | 215 kts | 80° |
| 2026-04-25 23:28 | -12.95280 | -38.54303 | 2997 ft | 214 kts | 81° |
| 2026-04-25 23:29 | -12.94979 | -38.52830 | 2795 ft | 210 kts | 81° |
| 2026-04-25 23:29 | -12.94684 | -38.51372 | 2602 ft | 205 kts | 81° |
| 2026-04-25 23:29 | -12.94409 | -38.49968 | 2444 ft | 197 kts | 82° |
| 2026-04-25 23:29 | -12.94150 | -38.48627 | 2455 ft | 192 kts | 82° |
| 2026-04-25 23:30 | -12.93885 | -38.47279 | 2531 ft | 185 kts | 81° |
| 2026-04-25 23:30 | -12.93631 | -38.46021 | 2377 ft | 177 kts | 81° |
| 2026-04-25 23:30 | -12.93385 | -38.44803 | 2148 ft | 171 kts | 81° |
| 2026-04-25 23:30 | -12.93152 | -38.43653 | 1959 ft | 163 kts | 81° |
| 2026-04-25 23:31 | -12.92926 | -38.42539 | 1740 ft | 151 kts | 82° |
| 2026-04-25 23:31 | -12.92724 | -38.41542 | 1520 ft | 136 kts | 81° |
| 2026-04-25 23:31 | -12.92534 | -38.40599 | 1355 ft | 135 kts | 82° |
| 2026-04-25 23:31 | -12.92346 | -38.39658 | 1198 ft | 134 kts | 81° |
| 2026-04-25 23:32 | -12.92160 | -38.38733 | 1034 ft | 134 kts | 82° |
| 2026-04-25 23:32 | -12.91970 | -38.37791 | 864 ft | 134 kts | 81° |
| 2026-04-25 23:32 | -12.91783 | -38.36858 | 695 ft | 134 kts | 81° |
| 2026-04-25 23:32 | -12.91594 | -38.35917 | 522 ft | 133 kts | 80° |
| 2026-04-25 23:33 | -12.91402 | -38.35001 | 312 ft | 133 kts | 80° |
| 2026-04-25 23:33 | -12.91227 | -38.34066 | 178 ft | 132 kts | 80° |
| 2026-04-25 23:33 | -12.91037 | -38.33157 | 47 ft | 128 kts | 81° |
| 2026-04-25 23:33 | -12.90884 | -38.32383 | 44 ft | 88 kts | 78° |
| 2026-04-25 23:34 | -12.90796 | -38.31937 | 51 ft | 37 kts | 78° |
| 2026-04-25 23:34 | -12.90770 | -38.31787 | 54 ft | 11 kts | 93° |
| 2026-04-25 23:34 | -12.90812 | -38.31722 | 55 ft | 11 kts | 155° |
| 2026-04-25 23:34 | -12.90863 | -38.31708 | 54 ft | 7 kts | 167° |
| 2026-04-25 23:35 | -12.90893 | -38.31709 | 54 ft | 4 kts | 206° |
| 2026-04-25 23:35 | -12.90916 | -38.31741 | 54 ft | 6 kts | 249° |
| 2026-04-25 23:35 | -12.90928 | -38.31797 | 53 ft | 9 kts | 259° |
| 2026-04-25 23:35 | -12.90943 | -38.31873 | 52 ft | 12 kts | 259° |
| 2026-04-25 23:36 | -12.90962 | -38.31966 | 50 ft | 14 kts | 257° |
| 2026-04-25 23:36 | -12.90977 | -38.32037 | 49 ft | 15 kts | 261° |
| 2026-04-25 23:36 | -12.91006 | -38.32192 | 46 ft | 17 kts | 259° |
| 2026-04-25 23:36 | -12.91032 | -38.32321 | 44 ft | 19 kts | 258° |
| 2026-04-25 23:37 | -12.91058 | -38.32455 | 43 ft | 19 kts | 262° |
| 2026-04-25 23:37 | -12.91087 | -38.32594 | 42 ft | 19 kts | 257° |
| 2026-04-25 23:37 | -12.91115 | -38.32732 | 41 ft | 20 kts | 258° |
| 2026-04-25 23:37 | -12.91143 | -38.32875 | 41 ft | 20 kts | 259° |
| 2026-04-25 23:38 | -12.91168 | -38.32994 | 41 ft | 16 kts | 258° |
| 2026-04-25 23:38 | -12.91190 | -38.33105 | 41 ft | 13 kts | 259° |
| 2026-04-25 23:38 | -12.91208 | -38.33169 | 41 ft | 6 kts | 224° |
| 2026-04-25 23:38 | -12.91246 | -38.33178 | 41 ft | 6 kts | 183° |
| 2026-04-25 23:39 | -12.91288 | -38.33190 | 42 ft | 6 kts | 206° |
| 2026-04-25 23:39 | -12.91327 | -38.33211 | 42 ft | 4 kts | 207° |
| 2026-04-25 23:39 | -12.91342 | -38.33219 | 42 ft | 0 kts | 207° |
| 2026-04-25 23:39 | -12.91347 | -38.33222 | 42 ft | 1 kts | 206° |
| 2026-04-25 23:40 | -12.91353 | -38.33225 | 42 ft | 0 kts | 206° |
| 2026-04-25 23:40 | -12.91360 | -38.33228 | 42 ft | 0 kts | 206° |